createdAt,value
2018-07-22T00:01:36.943Z,26.30
2018-07-22T00:04:05.386Z,23.87
2018-07-22T00:06:33.626Z,23.70
2018-07-22T00:09:01.872Z,24.30
2018-07-22T00:11:30.252Z,24.13
2018-07-22T00:13:58.516Z,25.97
2018-07-22T00:16:26.723Z,26.83
2018-07-22T00:18:54.958Z,27.07
2018-07-22T00:21:23.170Z,27.80
2018-07-22T00:23:51.458Z,27.20
2018-07-22T00:26:19.679Z,27.20
2018-07-22T00:28:47.911Z,25.57
2018-07-22T00:31:16.153Z,27.17
2018-07-22T00:33:45.420Z,27.77
2018-07-22T00:36:13.659Z,24.87
2018-07-22T00:38:41.891Z,34.80
2018-07-22T00:41:10.122Z,34.27
2018-07-22T00:43:38.356Z,42.97
2018-07-22T00:46:06.626Z,41.90
2018-07-22T00:48:34.903Z,42.23
2018-07-22T00:51:03.144Z,43.20
2018-07-22T00:53:31.472Z,42.50
2018-07-22T00:55:59.723Z,44.30
2018-07-22T00:58:28.011Z,37.83
2018-07-22T01:00:56.222Z,37.63
2018-07-22T01:03:24.466Z,36.83
2018-07-22T01:05:52.676Z,32.00
2018-07-22T01:08:20.938Z,33.13
2018-07-22T01:10:49.206Z,31.27
2018-07-22T01:13:17.418Z,28.63
2018-07-22T01:15:45.667Z,26.53
2018-07-22T01:18:13.882Z,25.90
2018-07-22T01:20:42.119Z,26.87
2018-07-22T01:23:10.338Z,28.90
2018-07-22T01:25:38.866Z,26.93
2018-07-22T01:28:07.223Z,28.30
2018-07-22T01:30:35.450Z,34.70
2018-07-22T01:33:03.705Z,33.17
2018-07-22T01:35:31.922Z,31.90
2018-07-22T01:38:00.150Z,30.77
2018-07-22T01:40:28.365Z,31.20
2018-07-22T01:42:56.635Z,28.27
2018-07-22T01:45:24.856Z,28.77
2018-07-22T01:47:53.070Z,31.63
2018-07-22T01:50:21.306Z,25.67
2018-07-22T01:52:49.527Z,27.67
2018-07-22T01:55:17.783Z,24.97
2018-07-22T01:57:46.019Z,24.27
2018-07-22T02:00:14.298Z,23.73
2018-07-22T02:02:42.526Z,22.93
2018-07-22T02:05:10.758Z,22.43
2018-07-22T02:07:38.978Z,22.07
2018-07-22T02:10:07.209Z,21.27
2018-07-22T02:12:35.432Z,20.07
2018-07-22T02:15:04.147Z,23.00
2018-07-22T02:17:32.363Z,21.50
2018-07-22T02:20:00.590Z,21.80
2018-07-22T02:22:28.817Z,21.10
2018-07-22T02:24:57.081Z,23.03
2018-07-22T02:27:25.310Z,20.87
2018-07-22T02:29:53.533Z,21.83
2018-07-22T02:32:21.740Z,22.40
2018-07-22T02:34:49.990Z,21.40
2018-07-22T02:37:18.202Z,21.47
2018-07-22T02:39:46.442Z,24.00
2018-07-22T02:42:14.651Z,22.00
2018-07-22T02:44:42.854Z,22.37
2018-07-22T02:47:11.074Z,23.40
2018-07-22T02:49:39.294Z,20.90
2018-07-22T02:52:07.547Z,21.87
2018-07-22T02:54:35.767Z,21.73
2018-07-22T02:57:04.035Z,22.47
2018-07-22T02:59:32.254Z,21.63
2018-07-22T03:02:00.472Z,20.87
2018-07-22T03:04:28.720Z,21.17
2018-07-22T03:06:56.996Z,24.37
2018-07-22T03:09:25.220Z,21.67
2018-07-22T03:11:53.432Z,21.87
2018-07-22T03:14:21.647Z,20.73
2018-07-22T03:16:49.856Z,22.13
2018-07-22T03:19:18.055Z,21.93
2018-07-22T03:21:46.358Z,21.83
2018-07-22T03:24:14.635Z,22.77
2018-07-22T03:26:42.870Z,22.03
2018-07-22T03:29:11.090Z,23.67
2018-07-22T03:31:39.350Z,22.67
2018-07-22T03:34:07.718Z,25.03
2018-07-22T03:36:35.934Z,23.73
2018-07-22T03:39:05.877Z,23.50
2018-07-22T03:41:34.150Z,23.27
2018-07-22T03:44:02.363Z,24.40
2018-07-22T03:46:30.586Z,23.90
2018-07-22T03:48:58.802Z,22.27
2018-07-22T03:51:27.010Z,24.07
2018-07-22T03:53:55.234Z,22.60
2018-07-22T03:56:23.446Z,24.57
2018-07-22T03:58:51.707Z,25.43
2018-07-22T04:01:19.951Z,27.87
2018-07-22T04:03:48.155Z,29.77
2018-07-22T04:06:16.378Z,28.10
2018-07-22T04:08:44.631Z,30.53
2018-07-22T04:11:12.854Z,31.53
2018-07-22T04:13:41.130Z,29.70
2018-07-22T04:16:09.356Z,32.83
2018-07-22T04:18:54.306Z,27.77
2018-07-22T04:21:24.571Z,28.03
2018-07-22T04:23:52.750Z,30.13
2018-07-22T04:26:21.722Z,29.60
2018-07-22T04:28:50.523Z,27.90
2018-07-22T04:31:18.826Z,30.33
2018-07-22T04:33:47.046Z,33.67
2018-07-22T04:36:15.266Z,33.30
2018-07-22T04:38:43.486Z,33.47
2018-07-22T04:41:11.694Z,35.00
2018-07-22T04:43:39.939Z,34.00
2018-07-22T04:46:08.160Z,30.63
2018-07-22T04:48:36.400Z,30.13
2018-07-22T04:51:04.627Z,29.60
2018-07-22T04:53:32.905Z,30.30
2018-07-22T04:56:01.147Z,25.70
2018-07-22T04:58:29.401Z,23.50
2018-07-22T05:00:57.639Z,22.60
2018-07-22T05:03:25.863Z,21.10
2018-07-22T05:05:54.065Z,23.30
2018-07-22T05:08:22.271Z,23.60
2018-07-22T05:10:50.510Z,22.50
2018-07-22T05:13:18.746Z,21.70
2018-07-22T05:15:46.958Z,23.10
2018-07-22T05:18:15.192Z,22.20
2018-07-22T05:20:43.451Z,19.20
2018-07-22T05:23:11.670Z,20.40
2018-07-22T05:25:39.890Z,20.00
2018-07-22T05:28:08.102Z,21.57
2018-07-22T05:30:36.337Z,21.93
2018-07-22T05:33:04.591Z,22.40
2018-07-22T05:35:32.790Z,22.37
2018-07-22T05:38:01.031Z,20.53
2018-07-22T05:40:29.282Z,20.70
2018-07-22T05:42:57.499Z,22.13
2018-07-22T05:45:25.730Z,22.40
2018-07-22T05:47:53.939Z,21.37
2018-07-22T05:50:22.186Z,20.60
2018-07-22T05:52:50.426Z,20.60
2018-07-22T05:55:18.634Z,20.90
2018-07-22T05:57:46.858Z,21.77
2018-07-22T06:00:15.128Z,22.00
2018-07-22T06:02:43.397Z,21.87
2018-07-22T06:05:11.734Z,22.00
2018-07-22T06:07:40.032Z,19.83
2018-07-22T06:10:08.415Z,19.87
2018-07-22T06:12:36.757Z,20.80
2018-07-22T06:15:06.638Z,21.97
2018-07-22T06:17:34.924Z,20.13
2018-07-22T06:20:03.447Z,21.37
2018-07-22T06:22:31.670Z,21.47
2018-07-22T06:24:59.911Z,20.93
2018-07-22T06:27:28.214Z,21.63
2018-07-22T06:29:56.440Z,21.20
2018-07-22T06:32:24.713Z,19.87
2018-07-22T06:34:52.922Z,19.60
2018-07-22T06:37:21.154Z,19.57
2018-07-22T06:39:49.378Z,21.30
2018-07-22T06:42:17.631Z,22.80
2018-07-22T06:44:45.859Z,23.30
2018-07-22T06:47:14.086Z,21.07
2018-07-22T06:49:42.363Z,21.83
2018-07-22T06:52:10.591Z,22.97
2018-07-22T06:54:38.819Z,22.63
2018-07-22T06:57:07.147Z,22.07
2018-07-22T06:59:35.379Z,22.90
2018-07-22T07:02:03.630Z,21.93
2018-07-22T07:04:31.906Z,20.80
2018-07-22T07:07:00.124Z,22.07
2018-07-22T07:09:28.375Z,22.00
2018-07-22T07:11:56.647Z,21.83
2018-07-22T07:14:24.862Z,23.07
2018-07-22T07:16:53.092Z,21.87
2018-07-22T07:19:21.338Z,20.80
2018-07-22T07:21:49.555Z,22.30
2018-07-22T07:24:17.834Z,22.07
2018-07-22T07:26:46.165Z,21.33
2018-07-22T07:29:14.307Z,22.77
2018-07-22T07:31:42.540Z,22.63
2018-07-22T07:34:10.776Z,24.37
2018-07-22T07:36:39.034Z,24.83
2018-07-22T07:39:09.071Z,24.00
2018-07-22T07:41:37.455Z,20.90
2018-07-22T07:44:05.670Z,22.73
2018-07-22T07:46:33.897Z,24.27
2018-07-22T07:49:02.334Z,22.70
2018-07-22T07:51:30.807Z,24.73
2018-07-22T07:53:59.134Z,23.13
2018-07-22T07:56:27.355Z,24.63
2018-07-22T07:58:55.580Z,24.27
2018-07-22T08:01:23.987Z,25.40
2018-07-22T08:03:52.520Z,22.70
2018-07-22T08:06:20.775Z,23.23
2018-07-22T08:08:49.131Z,24.63
2018-07-22T08:11:17.800Z,26.10
2018-07-22T08:13:46.027Z,25.53
2018-07-22T08:16:14.239Z,25.00
2018-07-22T08:18:42.470Z,26.30
2018-07-22T08:21:11.457Z,24.97
2018-07-22T08:23:39.707Z,27.93
2018-07-22T08:26:08.034Z,27.73
2018-07-22T08:28:47.662Z,26.60
2018-07-22T08:31:15.909Z,26.10
2018-07-22T08:33:44.111Z,26.83
2018-07-22T08:36:12.660Z,26.93
2018-07-22T08:38:41.227Z,27.70
2018-07-22T08:41:09.673Z,25.60
2018-07-22T08:43:37.879Z,25.77
2018-07-22T08:46:06.415Z,23.50
2018-07-22T08:48:34.940Z,23.03
2018-07-22T08:51:03.254Z,24.27
2018-07-22T08:53:31.466Z,25.67
2018-07-22T08:55:59.735Z,24.67
2018-07-22T08:58:28.491Z,24.83
2018-07-22T09:00:56.698Z,24.70
2018-07-22T09:03:25.024Z,25.00
2018-07-22T09:05:53.543Z,23.83
2018-07-22T09:08:22.023Z,24.23
2018-07-22T09:10:51.669Z,25.30
2018-07-22T09:13:20.879Z,24.10
2018-07-22T09:15:49.155Z,24.20
2018-07-22T09:18:17.398Z,24.10
2018-07-22T09:20:45.754Z,24.23
2018-07-22T09:23:13.999Z,24.40
2018-07-22T09:25:42.261Z,23.67
2018-07-22T09:28:10.506Z,23.37
2018-07-22T09:30:38.737Z,22.57
2018-07-22T09:33:06.943Z,22.30
2018-07-22T09:35:35.167Z,23.40
2018-07-22T09:38:03.387Z,22.63
2018-07-22T09:40:31.615Z,23.57
2018-07-22T09:42:59.902Z,23.83
2018-07-22T09:45:28.126Z,22.90
2018-07-22T09:47:56.335Z,21.47
2018-07-22T09:50:24.574Z,20.50
2018-07-22T09:52:52.790Z,23.43
2018-07-22T09:55:21.100Z,23.07
2018-07-22T09:57:49.310Z,21.03
2018-07-22T10:00:22.808Z,19.87
2018-07-22T10:02:51.034Z,19.77
2018-07-22T10:05:19.246Z,18.63
2018-07-22T10:07:47.506Z,20.83
2018-07-22T10:10:15.770Z,20.60
2018-07-22T10:12:43.990Z,21.23
2018-07-22T10:15:12.226Z,19.60
2018-07-22T10:17:40.898Z,20.57
2018-07-22T10:20:09.183Z,20.30
2018-07-22T10:22:37.440Z,20.97
2018-07-22T10:25:05.767Z,19.43
2018-07-22T10:27:34.051Z,22.30
2018-07-22T10:30:02.288Z,20.50
2018-07-22T10:32:30.571Z,17.87
2018-07-22T10:34:58.773Z,21.23
2018-07-22T10:37:27.010Z,20.17
2018-07-22T10:39:55.258Z,22.43
2018-07-22T10:42:23.475Z,20.97
2018-07-22T10:44:52.239Z,19.17
2018-07-22T10:47:20.452Z,19.83
2018-07-22T10:49:48.781Z,18.50
2018-07-22T10:52:17.310Z,18.77
2018-07-22T10:54:45.564Z,20.70
2018-07-22T10:57:13.804Z,19.30
2018-07-22T11:02:44.215Z,20.43
2018-07-22T11:05:13.680Z,18.80
2018-07-22T11:07:41.900Z,20.67
2018-07-22T11:10:10.177Z,18.13
2018-07-22T11:12:38.389Z,19.47
2018-07-22T11:15:07.171Z,19.13
2018-07-22T11:17:35.415Z,21.27
2018-07-22T11:20:03.655Z,20.13
2018-07-22T11:22:31.948Z,19.43
2018-07-22T11:25:00.299Z,19.77
2018-07-22T11:27:28.540Z,19.87
2018-07-22T11:29:56.773Z,20.53
2018-07-22T11:32:25.011Z,19.87
2018-07-22T11:34:53.222Z,21.20
2018-07-22T11:37:21.486Z,21.23
2018-07-22T11:39:49.711Z,21.23
2018-07-22T11:42:17.962Z,19.80
2018-07-22T11:44:46.182Z,22.70
2018-07-22T11:47:14.414Z,21.63
2018-07-22T11:49:42.636Z,22.77
2018-07-22T11:52:10.855Z,22.70
2018-07-22T11:54:39.111Z,22.50
2018-07-22T11:57:07.353Z,23.73
2018-07-22T11:59:35.575Z,23.40
2018-07-22T12:02:03.918Z,21.60
2018-07-22T12:04:32.135Z,22.43
2018-07-22T12:07:00.395Z,21.33
2018-07-22T12:09:28.623Z,22.30
2018-07-22T12:11:56.833Z,23.07
2018-07-22T12:14:25.050Z,24.10
2018-07-22T12:16:53.280Z,22.70
2018-07-22T12:19:21.502Z,23.40
2018-07-22T12:21:49.790Z,24.20
2018-07-22T12:24:18.023Z,23.60
2018-07-22T12:26:46.251Z,25.03
2018-07-22T12:29:14.584Z,24.10
2018-07-22T12:31:42.863Z,25.80
2018-07-22T12:34:11.107Z,24.30
2018-07-22T12:36:39.288Z,24.30
2018-07-22T12:39:09.525Z,22.10
2018-07-22T12:41:37.767Z,23.37
2018-07-22T12:44:05.995Z,25.80
2018-07-22T12:46:34.313Z,24.67
2018-07-22T12:49:02.523Z,26.70
2018-07-22T12:51:30.764Z,28.50
2018-07-22T12:53:59.031Z,29.20
2018-07-22T12:56:27.274Z,30.40
2018-07-22T12:58:55.498Z,31.03
2018-07-22T13:01:23.740Z,29.17
2018-07-22T13:03:51.962Z,31.60
2018-07-22T13:06:20.438Z,29.23
2018-07-22T13:08:48.787Z,29.13
2018-07-22T13:11:17.058Z,27.70
2018-07-22T13:13:45.291Z,31.13
2018-07-22T13:16:13.498Z,30.17
2018-07-22T13:18:41.775Z,30.80
2018-07-22T13:21:10.008Z,30.87
2018-07-22T13:23:38.226Z,31.63
2018-07-22T13:26:06.458Z,31.37
2018-07-22T13:28:35.961Z,35.00
2018-07-22T13:31:05.142Z,38.73
2018-07-22T13:33:33.480Z,39.47
2018-07-22T13:36:01.806Z,42.83
2018-07-22T13:38:30.306Z,40.60
2018-07-22T13:40:58.553Z,40.87
2018-07-22T13:43:26.802Z,32.57
2018-07-22T13:45:55.051Z,34.87
2018-07-22T13:48:23.347Z,35.07
2018-07-22T13:50:51.607Z,25.70
2018-07-22T13:53:19.831Z,25.67
2018-07-22T13:55:48.071Z,23.10
2018-07-22T13:58:16.311Z,23.87
2018-07-22T14:00:44.571Z,26.93
2018-07-22T14:03:12.851Z,27.60
2018-07-22T14:05:41.136Z,33.47
2018-07-22T14:08:09.387Z,33.97
2018-07-22T14:10:37.624Z,36.03
2018-07-22T14:13:06.043Z,37.13
2018-07-22T14:15:34.445Z,38.77
2018-07-22T14:18:02.617Z,36.43
2018-07-22T14:20:30.881Z,39.23
2018-07-22T14:22:59.119Z,39.93
2018-07-22T14:25:27.355Z,41.40
2018-07-22T14:27:55.642Z,44.87
2018-07-22T14:30:23.882Z,40.67
2018-07-22T14:32:52.123Z,44.67
2018-07-22T14:35:20.448Z,44.77
2018-07-22T14:37:48.707Z,41.47
2018-07-22T14:40:16.982Z,37.00
2018-07-22T14:42:46.923Z,38.60
2018-07-22T14:45:15.183Z,40.63
2018-07-22T14:47:43.436Z,40.90
2018-07-22T14:50:11.692Z,39.43
2018-07-22T14:52:39.928Z,41.70
2018-07-22T14:55:08.151Z,40.20
2018-07-22T14:57:36.396Z,43.87
2018-07-22T15:00:04.963Z,44.37
2018-07-22T15:02:33.209Z,40.63
2018-07-22T15:05:01.495Z,38.73
2018-07-22T15:07:29.759Z,40.07
2018-07-22T15:09:58.011Z,39.90
2018-07-22T15:12:26.259Z,33.70
2018-07-22T15:14:54.522Z,36.40
2018-07-22T15:17:22.763Z,34.40
2018-07-22T15:19:50.962Z,35.13
2018-07-22T15:22:19.278Z,33.77
2018-07-22T15:24:47.495Z,33.87
2018-07-22T15:27:15.734Z,35.03
2018-07-22T15:29:43.968Z,38.27
2018-07-22T15:32:12.551Z,36.13
2018-07-22T15:34:41.161Z,39.80
2018-07-22T15:37:09.502Z,40.23
2018-07-22T15:39:37.719Z,43.70
2018-07-22T15:42:05.975Z,43.70
2018-07-22T15:44:34.260Z,44.90
2018-07-22T15:47:02.476Z,41.43
2018-07-22T15:49:30.747Z,41.90
2018-07-22T15:51:58.981Z,45.00
2018-07-22T15:54:27.216Z,45.40
2018-07-22T15:56:55.476Z,44.53
2018-07-22T15:59:23.843Z,44.13
2018-07-22T16:01:52.078Z,45.10
2018-07-22T16:04:20.435Z,43.73
2018-07-22T16:06:48.784Z,42.63
2018-07-22T16:09:17.015Z,35.20
2018-07-22T16:11:45.258Z,38.17
2018-07-22T16:14:13.495Z,36.07
2018-07-22T16:16:41.742Z,37.13
2018-07-22T16:19:10.013Z,36.30
2018-07-22T16:21:38.253Z,36.20
2018-07-22T16:24:06.540Z,34.30
2018-07-22T16:26:34.770Z,35.47
2018-07-22T16:29:03.024Z,35.67
2018-07-22T16:31:31.286Z,33.27
2018-07-22T16:33:59.502Z,33.23
2018-07-22T16:36:27.800Z,30.77
2018-07-22T16:38:56.035Z,33.23
2018-07-22T16:41:24.290Z,30.10
2018-07-22T16:43:52.522Z,33.70
2018-07-22T16:46:20.789Z,34.27
2018-07-22T16:48:49.002Z,33.77
2018-07-22T16:51:17.243Z,32.90
2018-07-22T16:53:45.552Z,36.80
2018-07-22T16:56:13.755Z,38.67
2018-07-22T16:58:41.995Z,37.10
2018-07-22T17:01:10.262Z,35.60
2018-07-22T17:03:38.504Z,35.77
2018-07-22T17:06:06.735Z,37.37
2018-07-22T17:08:34.991Z,39.93
2018-07-22T17:11:03.258Z,38.20
2018-07-22T17:13:31.529Z,40.87
2018-07-22T17:15:59.752Z,41.40
2018-07-22T17:18:28.291Z,40.67
2018-07-22T17:20:56.667Z,37.13
2018-07-22T17:23:25.103Z,36.57
2018-07-22T17:25:53.787Z,44.33
2018-07-22T17:28:22.018Z,36.87
2018-07-22T17:30:50.264Z,39.10
2018-07-22T17:33:18.509Z,36.90
2018-07-22T17:35:46.730Z,35.50
2018-07-22T17:38:14.959Z,42.17
2018-07-22T17:40:43.254Z,36.57
2018-07-22T17:43:11.462Z,38.73
2018-07-22T17:45:39.707Z,37.87
2018-07-22T17:48:07.931Z,41.00
2018-07-22T17:50:36.155Z,37.20
2018-07-22T17:53:04.479Z,44.67
2018-07-22T17:55:32.692Z,41.57
2018-07-22T17:58:00.903Z,42.03
2018-07-22T18:00:29.165Z,42.53
2018-07-22T18:03:07.664Z,43.80
2018-07-22T18:05:35.970Z,46.47
2018-07-22T18:08:04.247Z,46.67
2018-07-22T18:10:32.493Z,43.67
2018-07-22T18:13:00.756Z,42.80
2018-07-22T18:15:29.006Z,45.33
2018-07-22T18:17:57.338Z,46.43
2018-07-22T18:20:25.506Z,46.50
2018-07-22T18:22:53.778Z,48.40
2018-07-22T18:25:22.011Z,45.70
2018-07-22T18:27:50.259Z,44.17
2018-07-22T18:30:18.514Z,43.63
2018-07-22T18:32:47.149Z,45.33
2018-07-22T18:35:15.398Z,39.93
2018-07-22T18:37:43.912Z,37.57
2018-07-22T18:40:12.306Z,34.90
2018-07-22T18:42:40.659Z,38.97
2018-07-22T18:45:08.947Z,39.30
2018-07-22T18:47:37.525Z,35.13
2018-07-22T18:50:05.838Z,37.50
2018-07-22T18:52:34.115Z,34.13
2018-07-22T18:55:02.400Z,35.83
2018-07-22T18:57:30.755Z,35.87
2018-07-22T18:59:59.162Z,38.57
2018-07-22T19:02:27.765Z,40.30
2018-07-22T19:04:56.015Z,36.77
2018-07-22T19:07:24.295Z,38.30
2018-07-22T19:09:52.640Z,40.23
2018-07-22T19:12:20.888Z,36.90
2018-07-22T19:14:49.214Z,34.73
2018-07-22T19:17:17.517Z,35.77
2018-07-22T19:19:45.898Z,39.63
2018-07-22T19:22:14.051Z,40.27
2018-07-22T19:24:42.361Z,40.83
2018-07-22T19:27:11.029Z,41.57
2018-07-22T19:29:39.486Z,42.37
2018-07-22T19:32:08.271Z,41.10
2018-07-22T19:34:36.633Z,40.23
2018-07-22T19:37:05.020Z,40.37
2018-07-22T19:39:36.990Z,42.67
2018-07-22T19:42:05.511Z,45.93
2018-07-22T19:44:33.755Z,41.40
2018-07-22T19:47:01.998Z,47.50
2018-07-22T19:49:30.235Z,40.87
2018-07-22T19:51:58.493Z,49.37
2018-07-22T19:54:26.751Z,48.50
2018-07-22T19:56:54.987Z,51.67
2018-07-22T19:59:23.223Z,47.97
2018-07-22T20:01:51.455Z,44.87
2018-07-22T20:04:19.686Z,46.63
2018-07-22T20:06:47.939Z,48.83
2018-07-22T20:09:16.176Z,45.97
2018-07-22T20:11:44.423Z,41.03
2018-07-22T20:14:12.659Z,40.77
2018-07-22T20:16:40.907Z,43.50
2018-07-22T20:19:09.122Z,45.27
2018-07-22T20:21:37.350Z,45.27
2018-07-22T20:24:05.683Z,49.87
2018-07-22T20:26:33.887Z,53.77
2018-07-22T20:29:02.157Z,50.90
2018-07-22T20:31:31.259Z,46.07
2018-07-22T20:33:59.467Z,47.37
2018-07-22T20:36:27.691Z,47.30
2018-07-22T20:38:55.974Z,46.30
2018-07-22T20:41:24.210Z,43.90
2018-07-22T20:43:52.460Z,44.43
2018-07-22T20:46:20.711Z,45.87
2018-07-22T20:48:48.943Z,42.10
2018-07-22T20:51:17.191Z,44.03
2018-07-22T20:53:45.441Z,43.13
2018-07-22T20:56:13.725Z,45.60
2018-07-22T20:58:41.928Z,42.20
2018-07-22T21:01:10.166Z,45.37
2018-07-22T21:03:38.395Z,45.50
2018-07-22T21:06:06.599Z,46.03
2018-07-22T21:08:34.848Z,42.50
2018-07-22T21:11:03.071Z,42.57
2018-07-22T21:13:31.311Z,41.77
2018-07-22T21:15:59.558Z,42.33
2018-07-22T21:18:27.778Z,43.00
2018-07-22T21:20:56.021Z,44.87
2018-07-22T21:23:24.247Z,40.60
2018-07-22T21:25:52.484Z,44.73
2018-07-22T21:28:20.703Z,45.30
2018-07-22T21:30:48.935Z,45.80
2018-07-22T21:33:17.142Z,44.63
2018-07-22T21:35:45.444Z,49.17
2018-07-22T21:38:13.678Z,46.00
2018-07-22T21:40:41.916Z,49.77
2018-07-22T21:43:10.211Z,45.27
2018-07-22T21:45:38.574Z,46.73
2018-07-22T21:48:06.894Z,48.40
2018-07-22T21:50:35.130Z,47.10
2018-07-22T21:53:03.374Z,46.30
2018-07-22T21:55:31.585Z,47.63
2018-07-22T21:57:59.815Z,50.30
2018-07-22T22:00:33.666Z,48.80
2018-07-22T22:03:02.995Z,45.63
2018-07-22T22:05:31.238Z,48.80
2018-07-22T22:07:59.532Z,44.87
2018-07-22T22:10:27.970Z,44.93
2018-07-22T22:12:56.454Z,47.47
2018-07-22T22:15:31.818Z,45.73
2018-07-22T22:18:03.270Z,44.20
2018-07-22T22:20:31.882Z,48.60
2018-07-22T22:23:00.139Z,49.87
2018-07-22T22:25:28.346Z,44.90
2018-07-22T22:27:56.602Z,47.23
2018-07-22T22:30:24.859Z,46.30
2018-07-22T22:32:53.103Z,46.97
2018-07-22T22:35:21.399Z,52.87
2018-07-22T22:37:49.670Z,54.00
2018-07-22T22:40:17.903Z,56.20
2018-07-22T22:42:46.999Z,55.53
2018-07-22T22:45:15.683Z,53.77
2018-07-22T22:47:43.975Z,53.17
2018-07-22T22:50:12.259Z,52.07
2018-07-22T22:52:40.525Z,53.10
2018-07-22T22:55:08.959Z,50.53
2018-07-22T22:57:37.219Z,51.50
2018-07-22T23:00:05.938Z,50.57
2018-07-22T23:02:37.123Z,53.60
2018-07-22T23:05:06.851Z,57.23
2018-07-22T23:07:35.167Z,58.10
2018-07-22T23:10:03.784Z,61.60
2018-07-22T23:12:32.047Z,63.03
2018-07-22T23:15:00.390Z,64.40
2018-07-22T23:17:28.647Z,60.03
2018-07-22T23:19:56.907Z,53.33
2018-07-22T23:22:25.135Z,59.80
2018-07-22T23:24:53.384Z,55.57
2018-07-22T23:27:21.597Z,54.67
2018-07-22T23:29:49.888Z,53.40
2018-07-22T23:32:18.123Z,56.70
2018-07-22T23:34:46.358Z,56.27
2018-07-22T23:37:14.611Z,53.43
2018-07-22T23:39:42.859Z,55.00
2018-07-22T23:42:11.086Z,50.13
2018-07-22T23:44:39.333Z,55.07
2018-07-22T23:47:07.542Z,54.00
2018-07-22T23:49:35.778Z,52.70
2018-07-22T23:52:03.998Z,51.17
2018-07-22T23:54:32.231Z,51.17
2018-07-22T23:57:00.454Z,49.17
2018-07-22T23:59:28.666Z,53.37
